Time;durP1;ratioP1;P1;durP2;ratioP2;P2;SDS_P1;SDS_P2;PMS_P1;PMS_P2;Temp;Humidity;BMP_temperature;BMP_pressure;BME280_temperature;BME280_humidity;BME280_pressure;Samples;Min_cycle;Max_cycle;Signal;HPM_P1;HPM_P2
2022/08/15 00:01:08;;;;;;;14.05;12.52;;;;;;;23.01;58.76;100231.88;5005251;28;20030;-57
2022/08/15 00:03:37;;;;;;;14.45;12.65;;;;;;;23.00;58.83;100224.00;5005062;28;20026;-57
2022/08/15 00:06:07;;;;;;;15.98;13.07;;;;;;;22.98;58.63;100218.06;5004903;28;20091;-57
2022/08/15 00:08:40;;;;;;;14.85;13.20;;;;;;;22.88;58.51;100218.84;5002246;28;20501;-57
2022/08/15 00:11:15;;;;;;;20.42;14.20;;;;;;;22.91;58.53;100231.03;5004204;28;20045;-57
2022/08/15 00:13:43;;;;;;;16.13;14.00;;;;;;;22.89;58.49;100223.19;5002726;28;20022;-57
2022/08/15 00:16:10;;;;;;;16.70;14.90;;;;;;;22.83;59.00;100226.94;5012748;28;20417;-57
2022/08/15 00:18:36;;;;;;;16.25;13.45;;;;;;;22.64;59.15;100244.72;5008583;28;20026;-57
2022/08/15 00:21:03;;;;;;;14.50;12.77;;;;;;;22.46;60.12;100241.38;5005832;28;20100;-57
2022/08/15 00:23:29;;;;;;;14.20;12.68;;;;;;;22.30;60.36;100234.28;5008209;28;20081;-61
2022/08/15 00:25:57;;;;;;;14.05;12.70;;;;;;;22.07;61.02;100243.63;5004764;28;20108;-57
2022/08/15 00:28:27;;;;;;;18.90;12.35;;;;;;;21.88;61.50;100254.00;5005705;28;20029;-57
2022/08/15 00:30:53;;;;;;;17.35;11.75;;;;;;;21.84;62.09;100268.28;5007112;28;20393;-57
2022/08/15 00:33:19;;;;;;;14.65;12.07;;;;;;;21.92;61.95;100257.81;5006947;28;20022;-56
2022/08/15 00:35:46;;;;;;;15.40;12.07;;;;;;;21.95;61.79;100235.66;5010818;28;20045;-57
2022/08/15 00:38:18;;;;;;;15.75;12.95;;;;;;;21.98;61.83;100258.69;5010030;28;20045;-57
2022/08/15 00:43:34;;;;;;;13.55;12.18;;;;;;;22.00;61.39;100234.91;5004534;28;20033;-57
2022/08/15 00:46:01;;;;;;;16.02;12.88;;;;;;;22.06;61.74;100246.59;5005498;28;20030;-57
2022/08/15 00:48:42;;;;;;;14.68;13.27;;;;;;;22.00;61.71;100255.72;5007990;28;20025;-57
2022/08/15 00:51:15;;;;;;;15.48;13.40;;;;;;;22.00;61.69;100247.59;5000066;28;20032;-56
2022/08/15 00:53:45;;;;;;;13.07;11.68;;;;;;;22.09;61.43;100256.88;5002792;28;20083;-56
2022/08/15 00:56:12;;;;;;;14.98;12.38;;;;;;;22.21;61.76;100236.66;5007776;28;20044;-58
2022/08/15 00:58:38;;;;;;;13.05;11.70;;;;;;;22.30;61.54;100237.00;5015432;28;20043;-57
2022/08/15 01:01:06;;;;;;;13.95;12.55;;;;;;;22.34;61.32;100238.09;5013265;28;20468;-57
2022/08/15 01:03:36;;;;;;;13.98;11.32;;;;;;;22.47;61.21;100240.31;5009800;28;20112;-57
2022/08/15 01:06:04;;;;;;;15.93;12.13;;;;;;;22.48;61.50;100233.81;5002526;28;20521;-57
2022/08/15 01:08:33;;;;;;;13.48;12.07;;;;;;;22.58;61.06;100232.25;5008294;28;20040;-57
2022/08/15 01:11:02;;;;;;;13.50;12.10;;;;;;;22.58;61.74;100229.53;5005948;28;20054;-57
2022/08/15 01:13:29;;;;;;;17.83;13.20;;;;;;;22.60;61.30;100227.38;5003265;28;20034;-57
2022/08/15 01:15:54;;;;;;;14.43;12.90;;;;;;;22.63;61.42;100224.97;5007457;28;20108;-57
2022/08/15 01:18:20;;;;;;;13.77;12.30;;;;;;;22.46;61.29;100230.56;5007746;28;20474;-57
2022/08/15 01:20:46;;;;;;;14.40;12.20;;;;;;;22.29;61.44;100234.56;5009756;28;20029;-57
2022/08/15 01:23:23;;;;;;;16.67;13.27;;;;;;;22.25;61.20;100234.22;5014784;28;20029;-57
2022/08/15 01:25:59;;;;;;;14.75;13.20;;;;;;;22.23;61.23;100228.28;5005917;28;20025;-57
2022/08/15 01:28:34;;;;;;;14.48;13.00;;;;;;;22.14;61.28;100222.56;5008284;28;20026;-57
2022/08/15 01:31:11;;;;;;;15.27;13.70;;;;;;;22.02;61.69;100229.22;5006528;28;20030;-57
2022/08/15 01:33:59;;;;;;;18.58;13.45;;;;;;;21.84;61.68;100230.44;5004370;28;20033;-57
2022/08/15 01:36:28;;;;;;;15.45;13.77;;;;;;;21.75;61.96;100218.50;5007147;28;20029;-57
2022/08/15 01:39:05;;;;;;;14.90;13.43;;;;;;;21.70;61.81;100224.69;5006725;28;20033;-57
2022/08/15 01:41:41;;;;;;;13.95;12.30;;;;;;;21.60;62.13;100220.00;5012529;28;20076;-57
2022/08/15 01:44:25;;;;;;;14.20;12.77;;;;;;;21.53;61.52;100213.19;5008066;28;20385;-57
2022/08/15 01:47:10;;;;;;;13.55;11.48;;;;;;;21.55;61.07;100214.56;5008528;28;20033;-57
2022/08/15 01:49:41;;;;;;;12.20;10.40;;;;;;;21.58;60.73;100205.91;5011426;28;20037;-57
2022/08/15 01:52:07;;;;;;;13.98;10.48;;;;;;;21.68;60.22;100209.78;5013748;28;20057;-57
2022/08/15 01:54:39;;;;;;;10.35;9.23;;;;;;;21.69;59.62;100211.44;5000131;28;20501;-56
2022/08/15 01:57:05;;;;;;;10.82;9.70;;;;;;;21.64;59.35;100214.88;5009638;28;20104;-57
2022/08/15 01:59:31;;;;;;;13.20;9.35;;;;;;;21.62;58.69;100211.63;5009602;28;20030;-57
2022/08/15 02:01:59;;;;;;;10.43;8.93;;;;;;;21.66;58.29;100207.31;5007647;28;20413;-57
2022/08/15 02:04:29;;;;;;;10.23;8.68;;;;;;;21.68;57.94;100212.47;5011675;28;20077;-57
2022/08/15 02:06:56;;;;;;;11.05;8.27;;;;;;;21.70;57.51;100211.16;5012000;28;20034;-57
2022/08/15 02:09:22;;;;;;;11.75;7.28;;;;;;;21.73;57.17;100218.75;5010337;28;20044;-57
2022/08/15 02:11:52;;;;;;;8.65;6.50;;;;;;;21.69;56.88;100211.44;5015889;28;20032;-57
2022/08/15 02:14:19;;;;;;;9.35;6.80;;;;;;;21.74;56.64;100227.69;5008225;28;20058;-57
2022/08/15 02:16:44;;;;;;;11.18;7.20;;;;;;;21.67;56.70;100241.38;5009257;28;20030;-57
2022/08/15 02:19:12;;;;;;;11.45;7.75;;;;;;;21.58;56.60;100240.25;5010366;28;20028;-57
2022/08/15 02:21:40;;;;;;;9.93;7.20;;;;;;;21.55;56.82;100246.16;5011601;28;20099;-57
2022/08/15 02:24:15;;;;;;;10.70;7.13;;;;;;;21.54;56.84;100231.84;5010661;28;20368;-57
2022/08/15 02:26:41;;;;;;;9.13;6.88;;;;;;;21.51;56.86;100234.25;5009304;28;20025;-56
2022/08/15 02:29:07;;;;;;;8.52;6.40;;;;;;;21.50;56.75;100243.41;5009999;28;20033;-57
2022/08/15 02:31:33;;;;;;;11.55;6.78;;;;;;;21.50;56.47;100241.53;5012428;28;20029;-57
2022/08/15 02:34:00;;;;;;;10.45;6.68;;;;;;;21.48;56.70;100243.69;5009090;28;20033;-57
2022/08/15 02:36:31;;;;;;;10.20;6.57;;;;;;;21.50;56.38;100241.53;5010373;28;20038;-57
2022/08/15 02:38:58;;;;;;;10.15;6.00;;;;;;;21.55;56.50;100246.16;5007671;28;20089;-56
2022/08/15 02:41:33;;;;;;;7.30;6.50;;;;;;;21.54;56.08;100244.53;5009947;28;20020;-56
2022/08/15 02:44:00;;;;;;;8.52;6.05;;;;;;;21.52;55.89;100241.28;5012911;28;20041;-57
2022/08/15 02:46:26;;;;;;;7.68;5.55;;;;;;;21.49;55.88;100242.59;5014202;28;20386;-57
2022/08/15 02:48:53;;;;;;;8.77;5.80;;;;;;;21.44;55.99;100236.34;5007832;28;20028;-57
2022/08/15 02:51:20;;;;;;;6.68;5.82;;;;;;;21.39;55.65;100239.78;5008365;28;20026;-57
2022/08/15 02:53:49;;;;;;;9.07;5.70;;;;;;;21.39;55.92;100239.78;5009480;28;20032;-56
2022/08/15 02:56:18;;;;;;;7.70;5.82;;;;;;;21.34;56.36;100240.56;5010912;28;20030;-57
2022/08/15 02:58:44;;;;;;;6.63;5.95;;;;;;;21.33;56.16;100240.81;5009528;28;20010;-57
2022/08/15 03:01:10;;;;;;;9.35;6.07;;;;;;;21.28;56.35;100235.38;5011404;28;20029;-57
2022/08/15 03:03:39;;;;;;;9.60;5.80;;;;;;;21.21;56.33;100250.94;5009319;28;20117;-57
2022/08/15 03:06:08;;;;;;;13.37;5.67;;;;;;;21.23;56.28;100243.41;5010794;28;20393;-57
2022/08/15 03:08:38;;;;;;;8.02;5.30;;;;;;;21.23;55.88;100248.81;5010144;28;20268;-57
2022/08/15 03:11:06;;;;;;;10.90;5.57;;;;;;;21.24;56.12;100240.47;5008455;28;20021;-57
2022/08/15 03:13:31;;;;;;;5.45;4.88;;;;;;;21.26;55.79;100232.94;5007707;28;20044;-55
2022/08/15 03:15:58;;;;;;;7.28;5.20;;;;;;;21.29;55.78;100250.50;5008416;28;20389;-56
2022/08/15 03:18:27;;;;;;;8.75;4.72;;;;;;;21.25;55.57;100238.59;5008669;28;20089;-57
2022/08/15 03:20:52;;;;;;;6.88;5.28;;;;;;;21.24;55.42;100243.19;5015621;28;20084;-57
2022/08/15 03:23:25;;;;;;;6.05;4.80;;;;;;;21.18;55.77;100238.78;5009308;28;20021;-57
2022/08/15 03:25:52;;;;;;;7.97;5.25;;;;;;;21.14;55.44;100236.84;5007675;28;20383;-55
2022/08/15 03:28:23;;;;;;;6.82;5.10;;;;;;;21.13;55.53;100236.03;5009866;28;20029;-56
2022/08/15 03:30:49;;;;;;;12.23;5.45;;;;;;;21.09;55.33;100239.47;5006753;28;20474;-56
2022/08/15 03:33:15;;;;;;;9.82;5.22;;;;;;;21.02;55.62;100236.97;5009234;28;20044;-57
2022/08/15 03:35:43;;;;;;;8.35;5.05;;;;;;;20.98;55.57;100241.25;5009276;28;20030;-56
2022/08/15 03:38:09;;;;;;;7.65;4.72;;;;;;;20.90;55.36;100242.53;5006924;28;20053;-57
2022/08/15 03:40:36;;;;;;;7.53;4.28;;;;;;;20.86;55.32;100243.28;5009735;28;20107;-57
2022/08/15 03:43:09;;;;;;;8.30;4.20;;;;;;;20.79;55.13;100248.88;5005435;28;20022;-57
2022/08/15 03:45:34;;;;;;;7.63;4.30;;;;;;;20.72;54.88;100243.66;5013534;28;20025;-57
2022/08/15 03:48:01;;;;;;;5.90;4.10;;;;;;;20.65;55.07;100239.53;5009294;28;20461;-57
2022/08/15 03:50:28;;;;;;;7.53;4.30;;;;;;;20.66;54.83;100239.28;5009797;28;20535;-57
2022/08/15 03:52:57;;;;;;;8.65;4.22;;;;;;;20.64;54.72;100244.13;5006521;28;20363;-57
2022/08/15 03:55:24;;;;;;;5.10;4.10;;;;;;;20.59;55.14;100238.66;5009625;28;20147;-56
2022/08/15 03:57:50;;;;;;;7.05;3.85;;;;;;;20.58;54.92;100238.91;5009344;28;20029;-57
2022/08/15 04:00:18;;;;;;;4.80;4.00;;;;;;;20.55;54.95;100248.31;5002687;28;20018;-57
2022/08/15 04:02:44;;;;;;;6.68;4.15;;;;;;;20.50;54.98;100240.16;5010854;28;20498;-57
2022/08/15 04:05:10;;;;;;;7.45;4.15;;;;;;;20.46;55.24;100243.59;5008258;28;20022;-57
2022/08/15 04:07:36;;;;;;;6.97;4.00;;;;;;;20.40;55.25;100240.03;5009426;28;20034;-56
2022/08/15 04:10:07;;;;;;;8.32;3.85;;;;;;;20.26;55.69;100239.56;5008381;28;20109;-57
2022/08/15 04:12:35;;;;;;;4.85;3.80;;;;;;;20.18;56.18;100247.22;5002846;28;20026;-57
2022/08/15 04:15:03;;;;;;;5.15;4.10;;;;;;;20.07;56.32;100246.28;5008727;28;20084;-56
2022/08/15 04:17:28;;;;;;;6.90;4.00;;;;;;;19.99;56.30;100257.50;5005247;28;20030;-57
2022/08/15 04:19:53;;;;;;;4.97;3.90;;;;;;;19.96;56.54;100252.59;5009642;28;20036;-57
2022/08/15 04:22:31;;;;;;;6.13;4.10;;;;;;;19.99;56.77;100260.19;5005338;28;20397;-57
2022/08/15 04:25:01;;;;;;;6.10;4.20;;;;;;;20.01;56.65;100264.25;5003042;28;20590;-57
2022/08/15 04:27:27;;;;;;;7.13;4.43;;;;;;;20.02;56.46;100265.88;5009260;28;20033;-57
2022/08/15 04:29:52;;;;;;;5.55;4.57;;;;;;;20.05;56.23;100267.28;5004916;28;20548;-57
2022/08/15 04:32:23;;;;;;;6.38;4.22;;;;;;;20.07;56.06;100262.44;5006777;28;20088;-57
2022/08/15 04:34:49;;;;;;;8.60;4.72;;;;;;;20.03;56.28;100262.13;5002040;28;20026;-57
2022/08/15 04:37:14;;;;;;;7.80;4.40;;;;;;;19.99;56.20;100274.47;5006851;28;20025;-57
2022/08/15 04:39:40;;;;;;;5.97;5.00;;;;;;;19.96;56.50;100269.59;5008860;28;20026;-57
2022/08/15 04:42:06;;;;;;;10.30;4.90;;;;;;;19.89;56.10;100268.09;5009210;28;20101;-57
2022/08/15 04:44:31;;;;;;;7.50;4.65;;;;;;;19.84;56.58;100268.84;5008162;28;20032;-57
2022/08/15 04:46:57;;;;;;;7.70;4.85;;;;;;;19.79;56.78;100272.25;5009233;28;20029;-57
2022/08/15 04:49:22;;;;;;;7.93;5.13;;;;;;;19.80;56.44;100265.00;5005693;28;20073;-56
2022/08/15 04:51:48;;;;;;;7.25;4.78;;;;;;;19.82;56.68;100270.97;5009054;28;20060;-55
2022/08/15 04:54:13;;;;;;;10.95;5.07;;;;;;;19.84;56.28;100268.00;5008675;28;20410;-57
2022/08/15 04:56:38;;;;;;;7.30;5.03;;;;;;;19.83;56.68;100263.69;5014268;28;20056;-56
2022/08/15 04:59:04;;;;;;;12.20;5.18;;;;;;;19.86;56.42;100258.63;5008455;28;20026;-56
2022/08/15 05:01:29;;;;;;;9.25;4.68;;;;;;;19.91;56.58;100265.97;5005926;28;20029;-57
2022/08/15 05:03:55;;;;;;;7.93;4.95;;;;;;;19.93;56.55;100264.66;5012047;28;20033;-56
2022/08/15 05:06:20;;;;;;;7.63;4.78;;;;;;;19.98;56.30;100275.53;5008614;28;20018;-57
2022/08/15 05:08:46;;;;;;;8.18;4.85;;;;;;;19.99;56.51;100266.38;5005196;28;20037;-57
2022/08/15 05:11:14;;;;;;;7.78;4.70;;;;;;;20.02;56.56;100279.38;5008408;28;20053;-57
2022/08/15 05:13:41;;;;;;;7.72;5.07;;;;;;;20.06;56.35;100282.38;5011091;28;20501;-57
2022/08/15 05:16:07;;;;;;;11.10;5.10;;;;;;;20.07;56.46;100273.22;5010871;28;20076;-57
2022/08/15 05:18:35;;;;;;;5.70;4.72;;;;;;;20.11;56.74;100275.19;5014908;28;20025;-57
2022/08/15 05:21:00;;;;;;;9.20;5.30;;;;;;;20.12;56.82;100276.00;5008979;28;20018;-56
2022/08/15 05:23:29;;;;;;;9.68;5.50;;;;;;;20.16;56.66;100287.09;5013934;28;20069;-57
2022/08/15 05:25:58;;;;;;;7.38;5.20;;;;;;;20.15;56.54;100296.25;5019924;28;20408;-57
2022/08/15 05:28:24;;;;;;;6.43;4.90;;;;;;;20.16;57.00;100287.91;5008121;28;20125;-56
2022/08/15 05:30:51;;;;;;;9.73;5.57;;;;;;;20.20;56.69;100291.75;5009910;28;20268;-57
2022/08/15 05:33:19;;;;;;;8.18;5.20;;;;;;;20.25;56.86;100291.03;5009268;28;20030;-56
2022/08/15 05:35:49;;;;;;;10.57;5.32;;;;;;;20.32;57.04;100291.66;5005174;28;20061;-57
2022/08/15 05:38:29;;;;;;;11.48;5.13;;;;;;;20.36;57.04;100285.53;5010258;28;20032;-56
2022/08/15 05:40:57;;;;;;;8.10;4.93;;;;;;;20.41;57.44;100288.31;5005502;28;20045;-57
2022/08/15 05:43:35;;;;;;;6.78;5.05;;;;;;;20.38;57.36;100279.88;5008333;28;20100;-56
2022/08/15 05:46:11;;;;;;;7.75;4.75;;;;;;;20.40;57.92;100291.25;5008255;28;20088;-57
2022/08/15 05:48:38;;;;;;;10.30;5.35;;;;;;;20.42;58.02;100287.25;5008811;28;20033;-57
2022/08/15 05:51:30;;;;;;;10.30;4.90;;;;;;;20.45;58.44;100291.34;5011646;28;20101;-56
2022/08/15 05:54:11;;;;;;;7.15;5.20;;;;;;;20.41;58.45;100296.41;5008261;28;20414;-57
2022/08/15 05:56:54;;;;;;;8.85;5.20;;;;;;;20.39;58.79;100303.91;5011118;28;20500;-57
2022/08/15 05:59:30;;;;;;;9.90;5.30;;;;;;;20.39;58.52;100309.31;5013392;28;20044;-57
2022/08/15 06:02:06;;;;;;;9.57;5.10;;;;;;;20.41;59.38;100303.69;5012278;28;20022;-57
2022/08/15 06:04:50;;;;;;;9.30;5.13;;;;;;;20.44;59.52;100302.38;5010464;28;20026;-56
2022/08/15 06:07:17;;;;;;;9.48;5.13;;;;;;;20.45;60.31;100302.13;5007898;28;20112;-57
2022/08/15 06:09:48;;;;;;;15.43;5.45;;;;;;;20.48;60.55;100298.09;5011650;28;20029;-56
2022/08/15 06:12:21;;;;;;;12.13;5.63;;;;;;;20.49;60.58;100297.03;5005900;28;20524;-56
2022/08/15 06:14:50;;;;;;;12.48;5.30;;;;;;;20.52;61.13;100304.63;5008792;28;20036;-57
2022/08/15 06:17:32;;;;;;;8.13;5.05;;;;;;;20.51;61.20;100294.91;5011851;28;20092;-56
2022/08/15 06:20:03;;;;;;;9.80;5.22;;;;;;;20.53;61.30;100304.41;5011121;28;20113;-57
2022/08/15 06:22:47;;;;;;;11.50;5.53;;;;;;;20.55;61.38;100310.38;5010108;28;20014;-56
2022/08/15 06:25:30;;;;;;;10.40;5.50;;;;;;;20.59;61.83;100314.19;5006722;28;20481;-57
2022/08/15 06:28:24;;;;;;;7.90;5.07;;;;;;;20.67;61.89;100315.66;5007666;28;20048;-57
2022/08/15 06:31:13;;;;;;;9.45;5.20;;;;;;;20.70;62.02;100318.66;5016181;28;20017;-57
2022/08/15 06:33:59;;;;;;;13.55;6.18;;;;;;;20.70;61.90;100328.63;5008680;28;20064;-56
2022/08/15 06:36:32;;;;;;;9.77;6.03;;;;;;;20.73;62.25;100328.13;5011676;28;20124;-56
2022/08/15 06:39:04;;;;;;;12.60;5.93;;;;;;;20.76;62.47;100319.53;5009955;28;20557;-57
2022/08/15 06:41:29;;;;;;;9.65;6.10;;;;;;;20.83;62.21;100322.06;5009052;28;20058;-56
2022/08/15 06:43:57;;;;;;;12.82;5.50;;;;;;;20.89;62.37;100318.38;5008114;28;20057;-55
2022/08/15 06:46:27;;;;;;;11.45;5.70;;;;;;;20.96;62.60;100319.78;5012227;28;20510;-57
2022/08/15 06:48:53;;;;;;;8.82;5.68;;;;;;;21.00;62.50;100307.44;5016128;28;20025;-57
2022/08/15 06:51:20;;;;;;;8.25;5.70;;;;;;;21.03;62.46;100308.81;5009535;28;20098;-57
2022/08/15 06:53:48;;;;;;;12.63;5.85;;;;;;;21.06;62.31;100319.09;5010485;28;20029;-57
2022/08/15 06:57:05;;;;;;;8.45;6.43;;;;;;;21.06;62.39;100323.69;5010362;28;20623;-58
2022/08/15 06:59:49;;;;;;;9.80;6.20;;;;;;;21.06;62.67;100320.97;4974985;28;20156;-57
2022/08/15 07:02:32;;;;;;;9.10;5.88;;;;;;;21.08;62.95;100324.25;5009644;28;20377;-57
2022/08/15 07:05:13;;;;;;;9.90;6.35;;;;;;;21.04;63.22;100326.63;5007753;28;20553;-56
2022/08/15 07:07:58;;;;;;;14.80;6.93;;;;;;;21.04;63.41;100326.63;4999058;28;20037;-57
2022/08/15 07:10:34;;;;;;;11.00;7.03;;;;;;;21.01;63.55;100325.25;4998142;28;20622;-56
2022/08/15 07:13:05;;;;;;;13.55;7.70;;;;;;;21.02;64.09;100326.06;4999089;28;20033;-57
2022/08/15 07:15:53;;;;;;;14.40;7.10;;;;;;;21.00;64.43;100336.31;5004678;28;20490;-57
2022/08/15 07:18:28;;;;;;;10.82;7.03;;;;;;;21.04;64.25;100330.16;5006873;28;20029;-57
2022/08/15 07:21:10;;;;;;;12.82;7.03;;;;;;;21.08;64.84;100332.34;5007532;28;20026;-57
2022/08/15 07:23:57;;;;;;;16.48;7.55;;;;;;;21.07;64.54;100323.44;5008474;28;20029;-57
2022/08/15 07:26:24;;;;;;;10.50;6.93;;;;;;;21.10;64.66;100314.81;5005084;28;20489;-57
2022/08/15 07:28:50;;;;;;;9.98;6.97;;;;;;;21.14;65.01;100305.16;5008365;28;20120;-57
2022/08/15 07:31:26;;;;;;;10.95;7.28;;;;;;;21.17;64.96;100303.84;5010164;28;20109;-57
2022/08/15 07:33:53;;;;;;;13.77;7.45;;;;;;;21.25;65.33;100311.50;5005693;28;20490;-57
2022/08/15 07:36:33;;;;;;;10.48;7.70;;;;;;;21.40;65.52;100319.78;5007694;28;20018;-57
2022/08/15 07:38:59;;;;;;;13.55;8.32;;;;;;;21.48;65.12;100323.91;5015526;28;20037;-57
2022/08/15 07:41:27;;;;;;;12.93;8.20;;;;;;;21.53;65.12;100318.56;5007978;28;20021;-57
2022/08/15 07:44:00;;;;;;;12.48;7.90;;;;;;;21.56;65.23;100324.25;5007382;28;20024;-57
2022/08/15 07:46:40;;;;;;;13.50;8.45;;;;;;;21.60;65.21;100321.88;5008221;28;20022;-57
2022/08/15 07:49:16;;;;;;;13.75;8.85;;;;;;;21.62;65.17;100322.41;5003777;28;20030;-57
2022/08/15 07:51:47;;;;;;;12.20;8.98;;;;;;;21.64;65.46;100314.88;5005933;28;20042;-57
2022/08/15 07:54:24;;;;;;;14.32;9.02;;;;;;;21.70;65.33;100326.56;5008037;28;20021;-57
2022/08/15 07:56:53;;;;;;;13.32;9.20;;;;;;;21.74;65.29;100327.69;5008787;28;20030;-57
2022/08/15 07:59:23;;;;;;;11.30;8.50;;;;;;;21.80;65.49;100324.75;5005058;28;20076;-56
2022/08/15 08:01:54;;;;;;;15.32;9.50;;;;;;;21.80;65.50;100327.47;5006508;28;20029;-57
2022/08/15 08:04:27;;;;;;;14.45;8.10;;;;;;;21.96;65.60;100329.22;5008626;28;20030;-57
2022/08/15 08:07:02;;;;;;;17.02;9.00;;;;;;;22.07;65.31;100338.25;4999443;28;20116;-57
2022/08/15 08:09:55;;;;;;;12.50;8.95;;;;;;;22.13;65.07;100339.94;5002727;28;20104;-57
2022/08/15 08:12:49;;;;;;;11.95;8.90;;;;;;;22.17;64.87;100335.63;5003632;28;20033;-57
2022/08/15 08:15:23;;;;;;;15.32;10.07;;;;;;;22.19;64.77;100332.66;4999033;28;20061;-57
2022/08/15 08:17:57;;;;;;;16.42;10.27;;;;;;;22.20;64.40;100334.28;4995553;28;20088;-56
2022/08/15 08:20:29;;;;;;;18.27;10.63;;;;;;;22.20;64.28;100332.41;4995395;28;20037;-57
2022/08/15 08:23:01;;;;;;;14.48;10.25;;;;;;;22.20;64.55;100337.00;5001597;28;20034;-57
2022/08/15 08:25:48;;;;;;;14.68;10.50;;;;;;;22.21;64.01;100350.25;4999503;28;20397;-58
2022/08/15 08:28:27;;;;;;;13.63;10.20;;;;;;;22.23;64.11;100340.00;5002363;28;20033;-57
2022/08/15 08:31:23;;;;;;;14.18;10.60;;;;;;;22.23;64.12;100347.28;5003190;28;20113;-57
2022/08/15 08:34:31;;;;;;;12.57;9.95;;;;;;;22.23;64.09;100342.69;4982380;28;20137;-57
2022/08/15 08:37:10;;;;;;;15.65;10.40;;;;;;;22.31;64.48;100343.31;5009911;28;20591;-57
2022/08/15 08:39:41;;;;;;;13.88;9.60;;;;;;;22.38;64.16;100342.00;4994034;28;20030;-57
2022/08/15 08:42:13;;;;;;;16.98;9.95;;;;;;;22.43;64.42;100344.75;4996262;28;20041;-57
2022/08/15 08:45:05;;;;;;;14.55;9.48;;;;;;;22.45;64.07;100337.16;4998006;28;20635;-56
2022/08/15 08:47:52;;;;;;;14.73;9.80;;;;;;;22.54;63.95;100351.03;4999380;28;20512;-57
2022/08/15 08:50:28;;;;;;;14.23;9.13;;;;;;;22.60;63.57;100346.47;5000674;28;20200;-57
2022/08/15 08:53:16;;;;;;;12.73;9.25;;;;;;;22.66;63.21;100345.41;5006103;28;20474;-57
2022/08/15 08:55:50;;;;;;;14.50;8.90;;;;;;;22.66;63.30;100342.72;5007305;28;20030;-57
2022/08/15 08:58:40;;;;;;;13.23;9.32;;;;;;;22.62;63.51;100339.72;5000778;28;20025;-57
2022/08/15 09:01:09;;;;;;;12.50;9.52;;;;;;;22.58;63.65;100352.16;5005095;28;20025;-57
2022/08/15 09:03:42;;;;;;;16.08;9.23;;;;;;;22.60;63.95;100349.19;5000932;28;20014;-56
2022/08/15 09:06:10;;;;;;;11.60;9.02;;;;;;;22.60;63.51;100354.59;5012194;28;20113;-57
2022/08/15 09:08:39;;;;;;;11.88;9.07;;;;;;;22.59;63.78;100355.66;5007094;28;20497;-57
2022/08/15 09:11:27;;;;;;;14.73;9.43;;;;;;;22.59;63.90;100358.38;5001897;28;20037;-57
2022/08/15 09:13:57;;;;;;;12.40;9.48;;;;;;;22.55;64.19;100358.91;5000590;28;20541;-57
2022/08/15 09:16:35;;;;;;;14.23;9.48;;;;;;;22.54;64.08;100354.53;5007127;28;20053;-57
2022/08/15 09:19:21;;;;;;;12.82;9.77;;;;;;;22.58;63.76;100367.56;5005240;28;20060;-57
2022/08/15 09:21:47;;;;;;;13.57;8.77;;;;;;;22.59;63.92;100363.78;5000264;28;20030;-58
2022/08/15 09:24:14;;;;;;;12.80;8.73;;;;;;;22.59;64.17;100366.50;5001411;28;20520;-57
2022/08/15 09:26:47;;;;;;;14.80;9.55;;;;;;;22.62;64.31;100365.97;5006567;28;20026;-58
2022/08/15 09:29:22;;;;;;;10.13;8.73;;;;;;;22.53;63.87;100361.03;5007370;28;20104;-57
2022/08/15 09:32:08;;;;;;;13.50;9.27;;;;;;;22.52;64.00;100370.22;5002463;28;20026;-56
2022/08/15 09:34:48;;;;;;;14.52;9.15;;;;;;;22.48;64.09;100368.31;5007966;28;20096;-57
2022/08/15 09:37:24;;;;;;;15.10;9.68;;;;;;;22.47;64.54;100369.38;5006197;28;20049;-57
2022/08/15 09:40:12;;;;;;;13.63;9.45;;;;;;;22.47;64.68;100364.78;5005332;28;20034;-57
2022/08/15 09:42:43;;;;;;;12.18;9.68;;;;;;;22.44;64.54;100373.44;5005963;28;20030;-56
2022/08/15 09:45:34;;;;;;;13.82;9.45;;;;;;;22.38;64.71;100373.66;5005143;28;20022;-56
2022/08/15 09:48:17;;;;;;;14.15;9.30;;;;;;;22.31;64.92;100384.72;5005326;28;20125;-57
2022/08/15 09:51:12;;;;;;;12.88;9.32;;;;;;;22.28;65.31;100373.59;5010575;28;20370;-57
2022/08/15 09:54:20;;;;;;;14.73;10.27;;;;;;;22.32;65.25;100369.28;5004432;28;20042;-57
2022/08/15 09:56:46;;;;;;;12.83;10.20;;;;;;;22.37;65.34;100364.72;5002802;28;20026;-57
2022/08/15 09:59:19;;;;;;;15.57;9.52;;;;;;;22.50;65.66;100366.16;5007258;28;20273;-57
2022/08/15 10:01:49;;;;;;;17.63;10.20;;;;;;;22.61;65.44;100367.88;5001255;28;20022;-55
2022/08/15 10:04:18;;;;;;;11.85;9.32;;;;;;;22.76;65.27;100362.53;5009637;28;20030;-57
2022/08/15 10:07:01;;;;;;;14.70;10.50;;;;;;;22.96;65.54;100358.31;4999847;28;20032;-56
2022/08/15 10:09:32;;;;;;;11.05;9.20;;;;;;;23.08;64.37;100369.75;5006668;28;20084;-56
2022/08/15 10:12:18;;;;;;;11.18;8.98;;;;;;;23.16;63.59;100372.78;5004494;28;20064;-57
2022/08/15 10:14:46;;;;;;;15.10;8.50;;;;;;;23.36;63.16;100371.19;4999334;28;20092;-57
2022/08/15 10:17:34;;;;;;;12.88;8.75;;;;;;;23.45;62.60;100375.03;5004812;28;20132;-56
2022/08/15 10:20:18;;;;;;;16.75;8.65;;;;;;;23.56;62.14;100368.59;5003318;28;20529;-57
2022/08/15 10:22:48;;;;;;;13.57;7.93;;;;;;;23.66;62.00;100363.16;5003729;28;20034;-57
2022/08/15 10:25:18;;;;;;;13.35;8.43;;;;;;;23.73;61.35;100355.59;5009291;28;20030;-56
2022/08/15 10:28:05;;;;;;;9.95;7.57;;;;;;;23.74;60.67;100351.81;5006662;28;20115;-56
2022/08/15 10:30:33;;;;;;;12.90;8.13;;;;;;;23.72;60.89;100358.59;5009853;28;20028;-57
2022/08/15 10:33:00;;;;;;;13.05;8.23;;;;;;;23.77;60.82;100364.84;5004144;28;20037;-58
2022/08/15 10:35:43;;;;;;;11.70;7.97;;;;;;;23.82;60.53;100379.47;5001333;28;20141;-57
2022/08/15 10:38:11;;;;;;;13.50;8.23;;;;;;;23.77;60.76;100364.84;5006321;28;20559;-57
2022/08/15 10:40:42;;;;;;;11.17;7.97;;;;;;;23.78;60.48;100382.72;5015544;28;20033;-57
2022/08/15 10:43:14;;;;;;;12.45;8.05;;;;;;;23.73;59.94;100376.50;5010631;28;20057;-57
2022/08/15 10:46:17;;;;;;;14.73;8.43;;;;;;;23.65;60.14;100379.72;5009226;28;20030;-57
2022/08/15 10:48:58;;;;;;;15.20;8.25;;;;;;;23.62;60.18;100372.13;5008116;28;20022;-57
2022/08/15 10:51:43;;;;;;;13.63;8.05;;;;;;;23.62;60.13;100378.34;5001093;28;20065;-57
2022/08/15 10:54:41;;;;;;;11.40;7.28;;;;;;;23.66;60.26;100384.03;5000615;28;20026;-57
2022/08/15 10:57:08;;;;;;;12.10;7.45;;;;;;;23.71;59.90;100379.47;4995973;28;20096;-57
2022/08/15 10:59:41;;;;;;;13.40;7.75;;;;;;;23.78;60.00;100382.72;5001573;28;20018;-57
2022/08/15 11:02:18;;;;;;;11.55;7.47;;;;;;;23.79;59.87;100381.66;5005071;28;20022;-57
2022/08/15 11:04:44;;;;;;;13.43;7.50;;;;;;;23.78;59.80;100380.00;4998041;28;20486;-57
2022/08/15 11:07:17;;;;;;;12.77;6.90;;;;;;;23.73;59.68;100385.44;5004960;28;20022;-57
2022/08/15 11:09:51;;;;;;;11.32;7.50;;;;;;;23.72;60.09;100383.81;5002252;28;20046;-56
2022/08/15 11:12:19;;;;;;;13.63;7.88;;;;;;;23.76;60.46;100379.47;4997058;28;20420;-57
2022/08/15 11:14:52;;;;;;;8.60;7.13;;;;;;;23.74;60.25;100381.63;5000103;28;20034;-57
2022/08/15 11:17:23;;;;;;;10.07;6.95;;;;;;;23.68;59.93;100381.88;4998926;28;20486;-57
2022/08/15 11:19:50;;;;;;;10.65;7.07;;;;;;;23.61;60.02;100376.72;5003542;28;20029;-57
2022/08/15 11:22:29;;;;;;;12.07;7.63;;;;;;;23.62;60.22;100383.78;5004307;28;20030;-57
2022/08/15 11:25:06;;;;;;;9.05;6.65;;;;;;;23.59;60.43;100386.22;5005684;28;20036;-57
2022/08/15 11:27:31;;;;;;;10.88;6.65;;;;;;;23.62;60.23;100382.97;5008098;28;20112;-57
2022/08/15 11:29:58;;;;;;;13.63;6.50;;;;;;;23.61;60.39;100392.16;5007941;28;20041;-57
2022/08/15 11:32:27;;;;;;;14.50;6.90;;;;;;;23.58;60.17;100392.72;5004867;28;20390;-57
2022/08/15 11:34:53;;;;;;;11.65;6.70;;;;;;;23.57;60.09;100389.19;5001221;28;20018;-57
2022/08/15 11:37:28;;;;;;;9.52;6.28;;;;;;;23.57;60.44;100378.34;5010883;28;20389;-57
2022/08/15 11:40:08;;;;;;;13.38;6.60;;;;;;;23.47;60.08;100381.81;5004540;28;20112;-56
2022/08/15 11:42:37;;;;;;;11.18;6.35;;;;;;;23.52;59.91;100389.16;5005660;28;20045;-57
2022/08/15 11:45:09;;;;;;;8.10;6.57;;;;;;;23.58;60.01;100398.13;5010421;28;20025;-57
2022/08/15 11:47:43;;;;;;;18.33;7.45;;;;;;;23.64;60.31;100394.34;5005762;28;20116;-56